Matthew K — WCZ9961 — position and weather

sailwx.info

Track history (hours):
 
Tides and Currents Weather Stations Pressure Air Temp Water Temp Dewpoint Dewpoint Depression Visibility Wind Speed Wind Dir Waves Ship Positions

Matthew K

Owner: G & H Towing Company, GALVESTON, TX. More information available from US FCC via Universal Licensing System and Coast Guard Vessel Documentation Center.

Last reported at 2017-Nov-19 11:40 UTC. Time now 2017-Nov-20 17:42 UTC.
Position N 29°46' W 095°05'.

Length 30 m; draft 5.2 m.

Type: Tug. MMSI: 366921830.

Date/timePositionNaut miles runAvg speedWind from/ knotsBaromVisibWave heightAir tempDewpointWater temp
2017-Nov-19 11:40N 29°46' W 095°05'0 0.0
2017-Nov-18 20:04N 29°46' W 095°05'1 3.8
2017-Nov-18 19:55N 29°46' W 095°05'2 4.9
2017-Nov-18 19:29N 29°45' W 095°07'2 0.1
2017-Nov-17 16:04N 29°44' W 095°09'2 0.7
2017-Nov-17 13:25N 29°44' W 095°07'0 0.0
2017-Nov-17 06:43N 29°44' W 095°07'1 4.5
2017-Nov-17 06:27N 29°45' W 095°06'3 6.3
2017-Nov-17 05:59N 29°44' W 095°03'2 1.6
2017-Nov-17 04:58N 29°43' W 095°01'4 7.6
2017-Nov-17 04:29N 29°40' W 094°59'3 6.6
2017-Nov-17 03:59N 29°37' W 094°59'1 2.6
2017-Nov-17 03:30N 29°37' W 095°01'0 0.0
2017-Nov-17 02:57N 29°37' W 095°01'0 0.0
2017-Nov-17 02:27N 29°37' W 095°01'0 0.0
2017-Nov-17 01:57N 29°37' W 095°01'0 0.0
2017-Nov-17 01:30N 29°37' W 095°01'0 0.0
2017-Nov-17 01:00N 29°37' W 095°01'0 0.0
2017-Nov-17 00:30N 29°37' W 095°01'0 0.0
2017-Nov-17 00:00N 29°37' W 095°01'0 0.0
2017-Nov-16 23:30N 29°37' W 095°01'0 0.0
2017-Nov-16 22:57N 29°37' W 095°01'0 0.1
2017-Nov-16 22:31N 29°37' W 095°01'1 1.4
2017-Nov-16 22:00N 29°37' W 095°01'0 0.5
2017-Nov-16 21:30N 29°37' W 095°02'0 0.0
2017-Nov-16 21:00N 29°37' W 095°02'1 2.0
2017-Nov-16 20:30N 29°37' W 095°00'0 0.0
2017-Nov-16 19:49N 29°37' W 095°00'0 0.0
2017-Nov-16 19:25N 29°37' W 095°00'3 6.2
2017-Nov-16 19:01N 29°37' W 094°58'4 8.5
2017-Nov-16 18:30N 29°41' W 094°59'5 7.6
2017-Nov-16 17:54N 29°44' W 095°03'0 0.1
2017-Nov-16 16:31N 29°44' W 095°03'0 0.6
2017-Nov-16 16:27N 29°44' W 095°03'2 2.7
2017-Nov-16 15:52N 29°44' W 095°01'0 0.1
2017-Nov-16 15:28N 29°44' W 095°01'6 1.8
2017-Nov-16 12:08N 29°44' W 095°08'1 8.6
2017-Nov-16 12:00N 29°44' W 095°10'2 1.2
2017-Nov-16 10:38N 29°45' W 095°11'0 0.2
2017-Nov-16 10:29N 29°45' W 095°11'1 2.1
2017-Nov-16 10:00N 29°45' W 095°10'3 0.2
2017-Nov-15 13:58N 29°44' W 095°07'1 1.1
2017-Nov-15 12:49N 29°44' W 095°08'2 5.8
2017-Nov-15 12:28N 29°45' W 095°10'0 0.0
2017-Nov-15 11:57N 29°45' W 095°10'0 0.0
2017-Nov-15 11:25N 29°45' W 095°10'0 0.0
2017-Nov-15 11:01N 29°45' W 095°10'0 0.0
2017-Nov-15 10:26N 29°45' W 095°10'0 0.0
2017-Nov-15 09:53N 29°45' W 095°10'0 0.0
2017-Nov-15 09:29N 29°45' W 095°10'0 0.0
2017-Nov-15 09:00N 29°45' W 095°10'0 0.0
2017-Nov-15 08:26N 29°45' W 095°10'0 0.0
2017-Nov-15 07:56N 29°45' W 095°10'0 0.0
2017-Nov-15 07:30N 29°45' W 095°10'0 0.0
2017-Nov-15 07:00N 29°45' W 095°10'0 0.0
2017-Nov-15 06:28N 29°45' W 095°10'0 0.4
2017-Nov-15 06:00N 29°45' W 095°10'0 0.7
2017-Nov-15 05:15N 29°44' W 095°10'1 3.1
2017-Nov-15 05:00N 29°45' W 095°10'0 0.0
2017-Nov-15 04:30N 29°45' W 095°10'0 0.0
2017-Nov-15 04:00N 29°45' W 095°10'0 0.0
2017-Nov-15 03:30N 29°45' W 095°10'0 0.0
2017-Nov-15 03:00N 29°45' W 095°10'0 0.8
2017-Nov-15 02:30N 29°45' W 095°10'1 2.4
2017-Nov-15 01:58N 29°44' W 095°09'1 2.4
2017-Nov-15 01:28N 29°45' W 095°10'0 0.0
2017-Nov-14 17:30N 29°45' W 095°10'2 1.1
2017-Nov-14 15:48N 29°44' W 095°12'1 0.9
2017-Nov-14 14:13N 29°44' W 095°14'0 1.9
2017-Nov-14 14:00N 29°43' W 095°13'2 0.6
2017-Nov-14 11:28N 29°43' W 095°15'0 0.0
2017-Nov-14 10:56N 29°43' W 095°15'0 0.0
2017-Nov-14 10:31N 29°43' W 095°15'0 0.0
2017-Nov-14 10:00N 29°43' W 095°15'0 0.0
2017-Nov-14 09:30N 29°43' W 095°15'0 0.1
2017-Nov-14 08:50N 29°43' W 095°15'0 1.1
2017-Nov-14 08:30N 29°43' W 095°15'2 2.9
2017-Nov-14 07:57N 29°44' W 095°13'1 2.1
2017-Nov-14 07:30N 29°44' W 095°12'0 0.0
2017-Nov-14 07:00N 29°44' W 095°12'0 0.0
2017-Nov-14 06:30N 29°44' W 095°12'0 0.0
2017-Nov-14 06:01N 29°44' W 095°12'0 0.0
2017-Nov-14 05:05N 29°44' W 095°12'0 0.1
2017-Nov-14 04:58N 29°44' W 095°12'0 0.0
2017-Nov-14 04:29N 29°44' W 095°12'0 0.0
2017-Nov-14 04:00N 29°44' W 095°12'0 0.0
2017-Nov-14 03:30N 29°44' W 095°12'0 0.0
2017-Nov-14 03:01N 29°44' W 095°12'0 0.0
2017-Nov-14 02:27N 29°44' W 095°12'0 0.0
2017-Nov-14 02:01N 29°44' W 095°12'0 0.0
2017-Nov-14 01:30N 29°44' W 095°12'0 0.0
2017-Nov-14 01:00N 29°44' W 095°12'0 0.0
2017-Nov-14 00:31N 29°44' W 095°12'1 1.3
2017-Nov-13 23:54N 29°44' W 095°13'2 5.5
2017-Nov-13 23:29N 29°44' W 095°15'1 2.3
2017-Nov-13 23:00N 29°44' W 095°17'0 0.4
2017-Nov-13 22:30N 29°44' W 095°16'1 0.1
2017-Nov-13 01:57N 29°43' W 095°15'1 1.9
2017-Nov-13 01:30N 29°43' W 095°14'1 1.2
2017-Nov-13 01:00N 29°44' W 095°13'0 0.0
2017-Nov-13 00:30N 29°44' W 095°13'1 1.5
2017-Nov-13 00:01N 29°43' W 095°14'0 0.0
2017-Nov-12 23:30N 29°43' W 095°14'0 0.0
2017-Nov-12 23:01N 29°43' W 095°14'0 0.0
2017-Nov-12 22:30N 29°43' W 095°14'0 0.0
2017-Nov-12 22:00N 29°43' W 095°14'0 0.2
2017-Nov-12 21:26N 29°43' W 095°14'0 0.6
2017-Nov-12 20:57N 29°43' W 095°14'2 4.7
2017-Nov-12 20:29N 29°44' W 095°12'2 0.9
2017-Nov-12 18:27N 29°45' W 095°10'2 4.6
2017-Nov-12 18:01N 29°44' W 095°12'0 0.0
2017-Nov-12 17:30N 29°44' W 095°12'2 3.2
2017-Nov-12 16:57N 29°45' W 095°10'0 0.3
2017-Nov-12 16:12N 29°45' W 095°10'0 0.0
2017-Nov-12 14:13N 29°45' W 095°10'0 0.0
2017-Nov-12 13:56N 29°45' W 095°10'2 4.3
2017-Nov-12 13:30N 29°44' W 095°08'1 0.8
2017-Nov-12 12:47N 29°44' W 095°07'0 0.0
2017-Nov-12 12:03N 29°44' W 095°07'0 0.8
2017-Nov-12 11:59N 29°44' W 095°07'1 0.8
2017-Nov-12 11:22N 29°44' W 095°08'2 4.6
2017-Nov-12 11:00N 29°45' W 095°06'0 0.0
2017-Nov-12 10:30N 29°45' W 095°06'0 0.0
2017-Nov-12 10:01N 29°45' W 095°06'0 0.0
2017-Nov-12 09:30N 29°45' W 095°06'0 0.0
2017-Nov-12 09:00N 29°45' W 095°06'0 0.0
2017-Nov-12 08:30N 29°45' W 095°06'0 0.0
2017-Nov-12 07:59N 29°45' W 095°06'0 0.0
2017-Nov-12 07:29N 29°45' W 095°06'0 0.0
2017-Nov-12 06:59N 29°45' W 095°06'0 0.0
2017-Nov-12 06:07N 29°45' W 095°06'0 0.0
2017-Nov-12 05:54N 29°45' W 095°06'0 0.0
2017-Nov-12 05:12N 29°45' W 095°06'0 0.0
2017-Nov-12 05:00N 29°45' W 095°06'0 0.0
2017-Nov-12 03:46N 29°45' W 095°06'0 0.0
2017-Nov-12 03:24N 29°45' W 095°06'0 0.0
2017-Nov-12 03:00N 29°45' W 095°06'0 0.0
2017-Nov-12 02:12N 29°45' W 095°06'0 0.0
2017-Nov-12 01:47N 29°45' W 095°06'1 1.0
2017-Nov-12 00:24N 29°44' W 095°08'2 0.7
2017-Nov-11 21:09N 29°45' W 095°10'0 3.1
2017-Nov-11 21:00N 29°44' W 095°10'0 0.0
2017-Nov-11 20:28N 29°44' W 095°10'1 2.2
2017-Nov-11 20:00N 29°44' W 095°09'0 0.3
2017-Nov-11 19:30N 29°44' W 095°09'0 0.0
2017-Nov-11 18:58N 29°44' W 095°09'0 0.0
2017-Nov-11 18:30N 29°44' W 095°09'0 0.1
2017-Nov-11 17:56N 29°44' W 095°09'0 0.1
2017-Nov-11 17:29N 29°44' W 095°09'0 0.1
2017-Nov-11 14:10N 29°44' W 095°08'2 0.4
2017-Nov-11 08:27N 29°45' W 095°10'1 1.7
2017-Nov-11 07:40N 29°45' W 095°12'1 1.9
2017-Nov-11 07:22N 29°44' W 095°12'1 2.8
2017-Nov-11 07:00N 29°45' W 095°11'3 5.4
2017-Nov-11 06:22N 29°44' W 095°07'2 5.5
2017-Nov-11 06:00N 29°45' W 095°06'3 5.1
2017-Nov-11 05:30N 29°44' W 095°08'2 0.7
2017-Nov-11 02:23N 29°45' W 095°10'3 2.5
2017-Nov-11 01:22N 29°44' W 095°13'1 3.7
2017-Nov-11 01:00N 29°45' W 095°12'3 0.4
2017-Nov-10 17:43N 29°44' W 095°08'2 1.2
2017-Nov-10 16:03N 29°45' W 095°06'2 0.4
2017-Nov-10 11:52N 29°44' W 095°08'1 0.4
2017-Nov-10 09:20N 29°44' W 095°07'0 0.0
2017-Nov-10 05:15N 29°45' W 095°07'1 2.1
2017-Nov-10 04:58N 29°45' W 095°06'0 0.3
2017-Nov-10 04:29N 29°45' W 095°06'2 0.1
2017-Nov-09 17:09N 29°44' W 095°08'0 0.0
2017-Nov-09 17:00N 29°44' W 095°08'0 0.2
2017-Nov-09 16:27N 29°44' W 095°08'1 0.3
2017-Nov-09 14:20N 29°44' W 095°09'2 5.9
2017-Nov-09 13:56N 29°45' W 095°11'2 5.1
2017-Nov-09 13:30N 29°43' W 095°13'2 5.1
2017-Nov-09 13:00N 29°44' W 095°16'0 0.3
2017-Nov-09 12:30N 29°44' W 095°16'0 0.3
2017-Nov-09 12:00N 29°44' W 095°16'  
Track history (hours):
 
Tides and Currents Weather Stations Pressure Air Temp Water Temp Dewpoint Dewpoint Depression Visibility Wind Speed Wind Dir Waves Ship Positions

Matthew K

Owner: G & H Towing Company, GALVESTON, TX. More information available from US FCC via Universal Licensing System and Coast Guard Vessel Documentation Center.

Last reported at 2017-Nov-19 11:40 UTC. Time now 2017-Nov-20 17:42 UTC.
Position N 29°46' W 095°05'.

Length 30 m; draft 5.2 m.

Type: Tug. MMSI: 366921830.

Date/timePositionNaut miles runAvg speedWind from/ knotsBaromVisibWave heightAir tempDewpointWater temp
2017-Nov-19 11:40N 29°46' W 095°05'0 0.0
2017-Nov-18 20:04N 29°46' W 095°05'1 3.8
2017-Nov-18 19:55N 29°46' W 095°05'2 4.9
2017-Nov-18 19:29N 29°45' W 095°07'2 0.1
2017-Nov-17 16:04N 29°44' W 095°09'2 0.7
2017-Nov-17 13:25N 29°44' W 095°07'0 0.0
2017-Nov-17 06:43N 29°44' W 095°07'1 4.5
2017-Nov-17 06:27N 29°45' W 095°06'3 6.3
2017-Nov-17 05:59N 29°44' W 095°03'2 1.6
2017-Nov-17 04:58N 29°43' W 095°01'4 7.6
2017-Nov-17 04:29N 29°40' W 094°59'3 6.6
2017-Nov-17 03:59N 29°37' W 094°59'1 2.6
2017-Nov-17 03:30N 29°37' W 095°01'0 0.0
2017-Nov-17 02:57N 29°37' W 095°01'0 0.0
2017-Nov-17 02:27N 29°37' W 095°01'0 0.0
2017-Nov-17 01:57N 29°37' W 095°01'0 0.0
2017-Nov-17 01:30N 29°37' W 095°01'0 0.0
2017-Nov-17 01:00N 29°37' W 095°01'0 0.0
2017-Nov-17 00:30N 29°37' W 095°01'0 0.0
2017-Nov-17 00:00N 29°37' W 095°01'0 0.0
2017-Nov-16 23:30N 29°37' W 095°01'0 0.0
2017-Nov-16 22:57N 29°37' W 095°01'0 0.1
2017-Nov-16 22:31N 29°37' W 095°01'1 1.4
2017-Nov-16 22:00N 29°37' W 095°01'0 0.5
2017-Nov-16 21:30N 29°37' W 095°02'0 0.0
2017-Nov-16 21:00N 29°37' W 095°02'1 2.0
2017-Nov-16 20:30N 29°37' W 095°00'0 0.0
2017-Nov-16 19:49N 29°37' W 095°00'0 0.0
2017-Nov-16 19:25N 29°37' W 095°00'3 6.2
2017-Nov-16 19:01N 29°37' W 094°58'4 8.5
2017-Nov-16 18:30N 29°41' W 094°59'5 7.6
2017-Nov-16 17:54N 29°44' W 095°03'0 0.1
2017-Nov-16 16:31N 29°44' W 095°03'0 0.6
2017-Nov-16 16:27N 29°44' W 095°03'2 2.7
2017-Nov-16 15:52N 29°44' W 095°01'0 0.1
2017-Nov-16 15:28N 29°44' W 095°01'6 1.8
2017-Nov-16 12:08N 29°44' W 095°08'1 8.6
2017-Nov-16 12:00N 29°44' W 095°10'2 1.2
2017-Nov-16 10:38N 29°45' W 095°11'0 0.2
2017-Nov-16 10:29N 29°45' W 095°11'1 2.1
2017-Nov-16 10:00N 29°45' W 095°10'3 0.2
2017-Nov-15 13:58N 29°44' W 095°07'1 1.1
2017-Nov-15 12:49N 29°44' W 095°08'2 5.8
2017-Nov-15 12:28N 29°45' W 095°10'0 0.0
2017-Nov-15 11:57N 29°45' W 095°10'0 0.0
2017-Nov-15 11:25N 29°45' W 095°10'0 0.0
2017-Nov-15 11:01N 29°45' W 095°10'0 0.0
2017-Nov-15 10:26N 29°45' W 095°10'0 0.0
2017-Nov-15 09:53N 29°45' W 095°10'0 0.0
2017-Nov-15 09:29N 29°45' W 095°10'0 0.0
2017-Nov-15 09:00N 29°45' W 095°10'0 0.0
2017-Nov-15 08:26N 29°45' W 095°10'0 0.0
2017-Nov-15 07:56N 29°45' W 095°10'0 0.0
2017-Nov-15 07:30N 29°45' W 095°10'0 0.0
2017-Nov-15 07:00N 29°45' W 095°10'0 0.0
2017-Nov-15 06:28N 29°45' W 095°10'0 0.4
2017-Nov-15 06:00N 29°45' W 095°10'0 0.7
2017-Nov-15 05:15N 29°44' W 095°10'1 3.1
2017-Nov-15 05:00N 29°45' W 095°10'0 0.0
2017-Nov-15 04:30N 29°45' W 095°10'0 0.0
2017-Nov-15 04:00N 29°45' W 095°10'0 0.0
2017-Nov-15 03:30N 29°45' W 095°10'0 0.0
2017-Nov-15 03:00N 29°45' W 095°10'0 0.8
2017-Nov-15 02:30N 29°45' W 095°10'1 2.4
2017-Nov-15 01:58N 29°44' W 095°09'1 2.4
2017-Nov-15 01:28N 29°45' W 095°10'0 0.0
2017-Nov-14 17:30N 29°45' W 095°10'2 1.1
2017-Nov-14 15:48N 29°44' W 095°12'1 0.9
2017-Nov-14 14:13N 29°44' W 095°14'0 1.9
2017-Nov-14 14:00N 29°43' W 095°13'2 0.6
2017-Nov-14 11:28N 29°43' W 095°15'0 0.0
2017-Nov-14 10:56N 29°43' W 095°15'0 0.0
2017-Nov-14 10:31N 29°43' W 095°15'0 0.0
2017-Nov-14 10:00N 29°43' W 095°15'0 0.0
2017-Nov-14 09:30N 29°43' W 095°15'0 0.1
2017-Nov-14 08:50N 29°43' W 095°15'0 1.1
2017-Nov-14 08:30N 29°43' W 095°15'2 2.9
2017-Nov-14 07:57N 29°44' W 095°13'1 2.1
2017-Nov-14 07:30N 29°44' W 095°12'0 0.0
2017-Nov-14 07:00N 29°44' W 095°12'0 0.0
2017-Nov-14 06:30N 29°44' W 095°12'0 0.0
2017-Nov-14 06:01N 29°44' W 095°12'0 0.0
2017-Nov-14 05:05N 29°44' W 095°12'0 0.1
2017-Nov-14 04:58N 29°44' W 095°12'0 0.0
2017-Nov-14 04:29N 29°44' W 095°12'0 0.0
2017-Nov-14 04:00N 29°44' W 095°12'0 0.0
2017-Nov-14 03:30N 29°44' W 095°12'0 0.0
2017-Nov-14 03:01N 29°44' W 095°12'0 0.0
2017-Nov-14 02:27N 29°44' W 095°12'0 0.0
2017-Nov-14 02:01N 29°44' W 095°12'0 0.0
2017-Nov-14 01:30N 29°44' W 095°12'0 0.0
2017-Nov-14 01:00N 29°44' W 095°12'0 0.0
2017-Nov-14 00:31N 29°44' W 095°12'1 1.3
2017-Nov-13 23:54N 29°44' W 095°13'2 5.5
2017-Nov-13 23:29N 29°44' W 095°15'1 2.3
2017-Nov-13 23:00N 29°44' W 095°17'0 0.4
2017-Nov-13 22:30N 29°44' W 095°16'1 0.1
2017-Nov-13 01:57N 29°43' W 095°15'1 1.9
2017-Nov-13 01:30N 29°43' W 095°14'1 1.2
2017-Nov-13 01:00N 29°44' W 095°13'0 0.0
2017-Nov-13 00:30N 29°44' W 095°13'1 1.5
2017-Nov-13 00:01N 29°43' W 095°14'0 0.0
2017-Nov-12 23:30N 29°43' W 095°14'0 0.0
2017-Nov-12 23:01N 29°43' W 095°14'0 0.0
2017-Nov-12 22:30N 29°43' W 095°14'0 0.0
2017-Nov-12 22:00N 29°43' W 095°14'0 0.2
2017-Nov-12 21:26N 29°43' W 095°14'0 0.6
2017-Nov-12 20:57N 29°43' W 095°14'2 4.7
2017-Nov-12 20:29N 29°44' W 095°12'2 0.9
2017-Nov-12 18:27N 29°45' W 095°10'2 4.6
2017-Nov-12 18:01N 29°44' W 095°12'0 0.0
2017-Nov-12 17:30N 29°44' W 095°12'2 3.2
2017-Nov-12 16:57N 29°45' W 095°10'0 0.3
2017-Nov-12 16:12N 29°45' W 095°10'0 0.0
2017-Nov-12 14:13N 29°45' W 095°10'0 0.0
2017-Nov-12 13:56N 29°45' W 095°10'2 4.3
2017-Nov-12 13:30N 29°44' W 095°08'1 0.8
2017-Nov-12 12:47N 29°44' W 095°07'0 0.0
2017-Nov-12 12:03N 29°44' W 095°07'0 0.8
2017-Nov-12 11:59N 29°44' W 095°07'1 0.8
2017-Nov-12 11:22N 29°44' W 095°08'2 4.6
2017-Nov-12 11:00N 29°45' W 095°06'0 0.0
2017-Nov-12 10:30N 29°45' W 095°06'0 0.0
2017-Nov-12 10:01N 29°45' W 095°06'0 0.0
2017-Nov-12 09:30N 29°45' W 095°06'0 0.0
2017-Nov-12 09:00N 29°45' W 095°06'0 0.0
2017-Nov-12 08:30N 29°45' W 095°06'0 0.0
2017-Nov-12 07:59N 29°45' W 095°06'0 0.0
2017-Nov-12 07:29N 29°45' W 095°06'0 0.0
2017-Nov-12 06:59N 29°45' W 095°06'0 0.0
2017-Nov-12 06:07N 29°45' W 095°06'0 0.0
2017-Nov-12 05:54N 29°45' W 095°06'0 0.0
2017-Nov-12 05:12N 29°45' W 095°06'0 0.0
2017-Nov-12 05:00N 29°45' W 095°06'0 0.0
2017-Nov-12 03:46N 29°45' W 095°06'0 0.0
2017-Nov-12 03:24N 29°45' W 095°06'0 0.0
2017-Nov-12 03:00N 29°45' W 095°06'0 0.0
2017-Nov-12 02:12N 29°45' W 095°06'0 0.0
2017-Nov-12 01:47N 29°45' W 095°06'1 1.0
2017-Nov-12 00:24N 29°44' W 095°08'2 0.7
2017-Nov-11 21:09N 29°45' W 095°10'0 3.1
2017-Nov-11 21:00N 29°44' W 095°10'0 0.0
2017-Nov-11 20:28N 29°44' W 095°10'1 2.2
2017-Nov-11 20:00N 29°44' W 095°09'0 0.3
2017-Nov-11 19:30N 29°44' W 095°09'0 0.0
2017-Nov-11 18:58N 29°44' W 095°09'0 0.0
2017-Nov-11 18:30N 29°44' W 095°09'0 0.1
2017-Nov-11 17:56N 29°44' W 095°09'0 0.1
2017-Nov-11 17:29N 29°44' W 095°09'0 0.1
2017-Nov-11 14:10N 29°44' W 095°08'2 0.4
2017-Nov-11 08:27N 29°45' W 095°10'1 1.7
2017-Nov-11 07:40N 29°45' W 095°12'1 1.9
2017-Nov-11 07:22N 29°44' W 095°12'1 2.8
2017-Nov-11 07:00N 29°45' W 095°11'3 5.4
2017-Nov-11 06:22N 29°44' W 095°07'2 5.5
2017-Nov-11 06:00N 29°45' W 095°06'3 5.1
2017-Nov-11 05:30N 29°44' W 095°08'2 0.7
2017-Nov-11 02:23N 29°45' W 095°10'3 2.5
2017-Nov-11 01:22N 29°44' W 095°13'1 3.7
2017-Nov-11 01:00N 29°45' W 095°12'3 0.4
2017-Nov-10 17:43N 29°44' W 095°08'2 1.2
2017-Nov-10 16:03N 29°45' W 095°06'2 0.4
2017-Nov-10 11:52N 29°44' W 095°08'1 0.4
2017-Nov-10 09:20N 29°44' W 095°07'0 0.0
2017-Nov-10 05:15N 29°45' W 095°07'1 2.1
2017-Nov-10 04:58N 29°45' W 095°06'0 0.3
2017-Nov-10 04:29N 29°45' W 095°06'2 0.1
2017-Nov-09 17:09N 29°44' W 095°08'0 0.0
2017-Nov-09 17:00N 29°44' W 095°08'0 0.2
2017-Nov-09 16:27N 29°44' W 095°08'1 0.3
2017-Nov-09 14:20N 29°44' W 095°09'2 5.9
2017-Nov-09 13:56N 29°45' W 095°11'2 5.1
2017-Nov-09 13:30N 29°43' W 095°13'2 5.1
2017-Nov-09 13:00N 29°44' W 095°16'0 0.3
2017-Nov-09 12:30N 29°44' W 095°16'0 0.3
2017-Nov-09 12:00N 29°44' W 095°16'  

Dump ship's entire track history